Clipper Titan — C6V2055 — position and weather

sailwx.info

Track history (hours):
 
Tides and Currents Weather Stations Pressure Air Temp Water Temp Dewpoint Dewpoint Depression Visibility Wind Speed Wind Dir Waves Ship Positions

Clipper Titan

Last reported at 2016-Nov-20 22:33 UTC. Time now 2016-Dec-06 08:19 UTC.
Position S 30°21' E 030°53'.
Warning: this ship's position is 15 days out of date.

Length 179 m; draft 6 m.

Type: Cargo ship. MMSI: 311008200.

Date/timePositionNaut miles runAvg speedWind from/ knotsBaromVisibWave heightAir tempDewpointWater temp
2016-Nov-20 22:33S 30°21' E 030°53'1110.9
2016-Nov-20 21:33S 30°12' E 030°59'19 4.8
2016-Nov-20 17:32S 29°53' E 031°00'0 0.0
2016-Nov-20 16:32S 29°53' E 031°00'0 0.0
2016-Nov-20 14:32S 29°53' E 031°00'0 0.0
2016-Nov-20 13:29S 29°53' E 031°00'0 0.0
2016-Nov-20 12:32S 29°53' E 031°00'0 0.0
2016-Nov-20 09:29S 29°53' E 031°00'0 0.0
2016-Nov-20 08:29S 29°53' E 031°00'0 0.0
2016-Nov-20 07:29S 29°53' E 031°00'0 0.0
2016-Nov-20 06:29S 29°53' E 031°00'0 0.0
2016-Nov-20 05:32S 29°53' E 031°00'0 0.0
2016-Nov-20 04:29S 29°53' E 031°00'0 0.0
2016-Nov-20 03:32S 29°53' E 031°00'0 0.0
2016-Nov-20 01:32S 29°53' E 031°00'0 0.0
2016-Nov-19 23:32S 29°53' E 031°00'0 0.0
2016-Nov-19 22:32S 29°53' E 031°00'0 0.0
2016-Nov-19 20:32S 29°53' E 031°00'0 0.0
2016-Nov-19 19:32S 29°53' E 031°00'0 0.0
2016-Nov-19 17:32S 29°53' E 031°00'0 0.0
2016-Nov-19 16:32S 29°53' E 031°00'0 0.0
2016-Nov-19 14:32S 29°53' E 031°00'0 0.0
2016-Nov-19 11:32S 29°53' E 031°00'0 0.0
2016-Nov-19 09:32S 29°53' E 031°00'0 0.0
2016-Nov-19 07:32S 29°53' E 031°00'0 0.0
2016-Nov-19 05:32S 29°53' E 031°00'0 0.0
2016-Nov-19 04:32S 29°53' E 031°00'0 0.0
2016-Nov-19 03:32S 29°53' E 031°00'0 0.0
2016-Nov-19 02:32S 29°53' E 031°00'0 0.0
2016-Nov-19 01:32S 29°53' E 031°00'0 0.0
2016-Nov-19 00:29S 29°53' E 031°00'0 0.0
2016-Nov-18 23:32S 29°53' E 031°00'0 0.0
2016-Nov-18 20:32S 29°53' E 031°00'0 0.0
2016-Nov-18 18:32S 29°53' E 031°00'0 0.0
2016-Nov-18 17:32S 29°53' E 031°00'0 0.0
2016-Nov-18 14:32S 29°53' E 031°00'0 0.0
2016-Nov-18 12:34S 29°53' E 031°00'6 5.6
2016-Nov-18 11:34S 29°50' E 031°06'5 2.4
2016-Nov-18 09:34S 29°49' E 031°11'1 0.4
2016-Nov-18 07:34S 29°49' E 031°12'13 6.3
2016-Nov-18 05:33S 29°59' E 031°05'1212.1
2016-Nov-18 04:34S 30°10' E 030°58'  
2016-Nov-13 10:25S 33°55' E 018°26'0 0.0
2016-Nov-13 08:25S 33°55' E 018°26'0 0.0
2016-Nov-13 05:31S 33°55' E 018°26'0 0.0
2016-Nov-13 03:31S 33°55' E 018°26'0 0.0
2016-Nov-12 23:25S 33°55' E 018°26'0 0.0
2016-Nov-12 21:25S 33°55' E 018°26'0 0.0
2016-Nov-12 19:25S 33°55' E 018°26'  
Track history (hours):
 
Tides and Currents Weather Stations Pressure Air Temp Water Temp Dewpoint Dewpoint Depression Visibility Wind Speed Wind Dir Waves Ship Positions

Clipper Titan

Last reported at 2016-Nov-20 22:33 UTC. Time now 2016-Dec-06 08:19 UTC.
Position S 30°21' E 030°53'.
Warning: this ship's position is 15 days out of date.

Length 179 m; draft 6 m.

Type: Cargo ship. MMSI: 311008200.

Date/timePositionNaut miles runAvg speedWind from/ knotsBaromVisibWave heightAir tempDewpointWater temp
2016-Nov-20 22:33S 30°21' E 030°53'1110.9
2016-Nov-20 21:33S 30°12' E 030°59'19 4.8
2016-Nov-20 17:32S 29°53' E 031°00'0 0.0
2016-Nov-20 16:32S 29°53' E 031°00'0 0.0
2016-Nov-20 14:32S 29°53' E 031°00'0 0.0
2016-Nov-20 13:29S 29°53' E 031°00'0 0.0
2016-Nov-20 12:32S 29°53' E 031°00'0 0.0
2016-Nov-20 09:29S 29°53' E 031°00'0 0.0
2016-Nov-20 08:29S 29°53' E 031°00'0 0.0
2016-Nov-20 07:29S 29°53' E 031°00'0 0.0
2016-Nov-20 06:29S 29°53' E 031°00'0 0.0
2016-Nov-20 05:32S 29°53' E 031°00'0 0.0
2016-Nov-20 04:29S 29°53' E 031°00'0 0.0
2016-Nov-20 03:32S 29°53' E 031°00'0 0.0
2016-Nov-20 01:32S 29°53' E 031°00'0 0.0
2016-Nov-19 23:32S 29°53' E 031°00'0 0.0
2016-Nov-19 22:32S 29°53' E 031°00'0 0.0
2016-Nov-19 20:32S 29°53' E 031°00'0 0.0
2016-Nov-19 19:32S 29°53' E 031°00'0 0.0
2016-Nov-19 17:32S 29°53' E 031°00'0 0.0
2016-Nov-19 16:32S 29°53' E 031°00'0 0.0
2016-Nov-19 14:32S 29°53' E 031°00'0 0.0
2016-Nov-19 11:32S 29°53' E 031°00'0 0.0
2016-Nov-19 09:32S 29°53' E 031°00'0 0.0
2016-Nov-19 07:32S 29°53' E 031°00'0 0.0
2016-Nov-19 05:32S 29°53' E 031°00'0 0.0
2016-Nov-19 04:32S 29°53' E 031°00'0 0.0
2016-Nov-19 03:32S 29°53' E 031°00'0 0.0
2016-Nov-19 02:32S 29°53' E 031°00'0 0.0
2016-Nov-19 01:32S 29°53' E 031°00'0 0.0
2016-Nov-19 00:29S 29°53' E 031°00'0 0.0
2016-Nov-18 23:32S 29°53' E 031°00'0 0.0
2016-Nov-18 20:32S 29°53' E 031°00'0 0.0
2016-Nov-18 18:32S 29°53' E 031°00'0 0.0
2016-Nov-18 17:32S 29°53' E 031°00'0 0.0
2016-Nov-18 14:32S 29°53' E 031°00'0 0.0
2016-Nov-18 12:34S 29°53' E 031°00'6 5.6
2016-Nov-18 11:34S 29°50' E 031°06'5 2.4
2016-Nov-18 09:34S 29°49' E 031°11'1 0.4
2016-Nov-18 07:34S 29°49' E 031°12'13 6.3
2016-Nov-18 05:33S 29°59' E 031°05'1212.1
2016-Nov-18 04:34S 30°10' E 030°58'  
2016-Nov-13 10:25S 33°55' E 018°26'0 0.0
2016-Nov-13 08:25S 33°55' E 018°26'0 0.0
2016-Nov-13 05:31S 33°55' E 018°26'0 0.0
2016-Nov-13 03:31S 33°55' E 018°26'0 0.0
2016-Nov-12 23:25S 33°55' E 018°26'0 0.0
2016-Nov-12 21:25S 33°55' E 018°26'0 0.0
2016-Nov-12 19:25S 33°55' E 018°26'  

Dump ship's entire track history